sensor_id;sensor_type;location;lat;lon;timestamp;P1;durP1;ratioP1;P2;durP2;ratioP2
47764;SDS011;33529;49.242;8.670;2023-05-07T00:01:29;1.65;;;1.10;;
47764;SDS011;33529;49.242;8.670;2023-05-07T00:03:56;2.20;;;1.30;;
47764;SDS011;33529;49.242;8.670;2023-05-07T00:06:23;2.47;;;1.27;;
47764;SDS011;33529;49.242;8.670;2023-05-07T00:08:50;2.53;;;1.45;;
47764;SDS011;33529;49.242;8.670;2023-05-07T00:11:17;2.65;;;1.38;;
47764;SDS011;33529;49.242;8.670;2023-05-07T00:13:44;3.38;;;1.30;;
47764;SDS011;33529;49.242;8.670;2023-05-07T00:16:10;2.17;;;1.10;;
47764;SDS011;33529;49.242;8.670;2023-05-07T00:18:37;2.17;;;1.20;;
47764;SDS011;33529;49.242;8.670;2023-05-07T00:21:04;1.90;;;1.05;;
47764;SDS011;33529;49.242;8.670;2023-05-07T00:23:31;2.30;;;1.10;;
47764;SDS011;33529;49.242;8.670;2023-05-07T00:25:58;2.88;;;1.35;;
47764;SDS011;33529;49.242;8.670;2023-05-07T00:28:24;2.85;;;1.30;;
47764;SDS011;33529;49.242;8.670;2023-05-07T00:30:52;1.95;;;1.10;;
47764;SDS011;33529;49.242;8.670;2023-05-07T00:33:19;2.28;;;1.23;;
47764;SDS011;33529;49.242;8.670;2023-05-07T00:35:47;2.20;;;1.42;;
47764;SDS011;33529;49.242;8.670;2023-05-07T00:38:14;2.70;;;1.25;;
47764;SDS011;33529;49.242;8.670;2023-05-07T00:40:41;2.60;;;1.25;;
47764;SDS011;33529;49.242;8.670;2023-05-07T00:43:07;1.35;;;0.95;;
47764;SDS011;33529;49.242;8.670;2023-05-07T00:45:35;1.42;;;1.08;;
47764;SDS011;33529;49.242;8.670;2023-05-07T00:48:02;1.98;;;1.50;;
47764;SDS011;33529;49.242;8.670;2023-05-07T00:50:30;1.80;;;0.80;;
47764;SDS011;33529;49.242;8.670;2023-05-07T00:52:57;2.78;;;1.35;;
47764;SDS011;33529;49.242;8.670;2023-05-07T00:55:25;3.63;;;1.30;;
47764;SDS011;33529;49.242;8.670;2023-05-07T00:57:52;1.95;;;1.23;;
47764;SDS011;33529;49.242;8.670;2023-05-07T01:00:19;2.05;;;1.08;;
47764;SDS011;33529;49.242;8.670;2023-05-07T01:02:47;2.78;;;1.30;;
47764;SDS011;33529;49.242;8.670;2023-05-07T01:05:15;2.47;;;1.20;;
47764;SDS011;33529;49.242;8.670;2023-05-07T01:07:45;1.80;;;0.98;;
47764;SDS011;33529;49.242;8.670;2023-05-07T01:10:12;2.22;;;1.33;;
47764;SDS011;33529;49.242;8.670;2023-05-07T01:12:40;2.83;;;1.27;;
47764;SDS011;33529;49.242;8.670;2023-05-07T01:15:08;2.33;;;1.20;;
47764;SDS011;33529;49.242;8.670;2023-05-07T01:17:36;1.85;;;1.15;;
47764;SDS011;33529;49.242;8.670;2023-05-07T01:20:12;4.70;;;1.20;;
47764;SDS011;33529;49.242;8.670;2023-05-07T01:22:41;2.38;;;1.02;;
47764;SDS011;33529;49.242;8.670;2023-05-07T01:25:10;2.30;;;1.25;;
47764;SDS011;33529;49.242;8.670;2023-05-07T01:27:41;2.28;;;1.25;;
47764;SDS011;33529;49.242;8.670;2023-05-07T01:30:08;2.58;;;1.35;;
47764;SDS011;33529;49.242;8.670;2023-05-07T01:32:47;2.88;;;1.20;;
47764;SDS011;33529;49.242;8.670;2023-05-07T01:35:25;1.67;;;1.00;;
47764;SDS011;33529;49.242;8.670;2023-05-07T01:37:55;2.17;;;1.30;;
47764;SDS011;33529;49.242;8.670;2023-05-07T01:40:24;2.28;;;1.15;;
47764;SDS011;33529;49.242;8.670;2023-05-07T01:42:52;2.80;;;1.60;;
47764;SDS011;33529;49.242;8.670;2023-05-07T01:45:21;2.47;;;1.30;;
47764;SDS011;33529;49.242;8.670;2023-05-07T01:47:49;2.83;;;1.20;;
47764;SDS011;33529;49.242;8.670;2023-05-07T01:50:17;2.85;;;1.50;;
47764;SDS011;33529;49.242;8.670;2023-05-07T01:52:45;3.10;;;1.17;;
47764;SDS011;33529;49.242;8.670;2023-05-07T01:55:13;2.20;;;1.20;;
47764;SDS011;33529;49.242;8.670;2023-05-07T01:57:40;2.85;;;1.20;;
47764;SDS011;33529;49.242;8.670;2023-05-07T02:00:07;2.97;;;1.77;;
47764;SDS011;33529;49.242;8.670;2023-05-07T02:02:42;2.80;;;1.35;;
47764;SDS011;33529;49.242;8.670;2023-05-07T02:05:19;2.17;;;1.23;;
47764;SDS011;33529;49.242;8.670;2023-05-07T02:07:54;1.88;;;1.23;;
47764;SDS011;33529;49.242;8.670;2023-05-07T02:10:21;2.45;;;1.67;;
47764;SDS011;33529;49.242;8.670;2023-05-07T02:12:48;3.10;;;2.00;;
47764;SDS011;33529;49.242;8.670;2023-05-07T02:15:15;2.55;;;1.60;;
47764;SDS011;33529;49.242;8.670;2023-05-07T02:20:32;2.55;;;1.60;;
47764;SDS011;33529;49.242;8.670;2023-05-07T02:23:01;2.80;;;1.67;;
47764;SDS011;33529;49.242;8.670;2023-05-07T02:25:29;3.67;;;1.80;;
47764;SDS011;33529;49.242;8.670;2023-05-07T02:27:57;1.63;;;1.05;;
47764;SDS011;33529;49.242;8.670;2023-05-07T02:30:36;2.50;;;1.90;;
47764;SDS011;33529;49.242;8.670;2023-05-07T02:33:03;4.03;;;1.77;;
47764;SDS011;33529;49.242;8.670;2023-05-07T02:35:30;2.47;;;1.40;;
47764;SDS011;33529;49.242;8.670;2023-05-07T02:37:57;3.25;;;1.80;;
47764;SDS011;33529;49.242;8.670;2023-05-07T02:40:25;2.33;;;1.38;;
47764;SDS011;33529;49.242;8.670;2023-05-07T02:42:51;3.78;;;1.70;;
47764;SDS011;33529;49.242;8.670;2023-05-07T02:45:18;3.05;;;1.65;;
47764;SDS011;33529;49.242;8.670;2023-05-07T02:47:47;3.80;;;1.67;;
47764;SDS011;33529;49.242;8.670;2023-05-07T02:50:14;2.97;;;1.90;;
47764;SDS011;33529;49.242;8.670;2023-05-07T02:52:41;3.80;;;1.52;;
47764;SDS011;33529;49.242;8.670;2023-05-07T02:55:08;3.13;;;2.13;;
47764;SDS011;33529;49.242;8.670;2023-05-07T02:57:35;3.13;;;1.80;;
47764;SDS011;33529;49.242;8.670;2023-05-07T03:00:09;3.28;;;1.60;;
47764;SDS011;33529;49.242;8.670;2023-05-07T03:02:46;3.45;;;1.50;;
47764;SDS011;33529;49.242;8.670;2023-05-07T03:05:13;2.28;;;1.38;;
47764;SDS011;33529;49.242;8.670;2023-05-07T03:07:40;2.83;;;1.60;;
47764;SDS011;33529;49.242;8.670;2023-05-07T03:12:39;2.92;;;1.58;;
47764;SDS011;33529;49.242;8.670;2023-05-07T03:15:07;3.00;;;1.70;;
47764;SDS011;33529;49.242;8.670;2023-05-07T03:17:35;2.42;;;1.50;;
47764;SDS011;33529;49.242;8.670;2023-05-07T03:20:02;2.95;;;1.60;;
47764;SDS011;33529;49.242;8.670;2023-05-07T03:22:29;2.53;;;1.77;;
47764;SDS011;33529;49.242;8.670;2023-05-07T03:24:56;3.08;;;1.60;;
47764;SDS011;33529;49.242;8.670;2023-05-07T03:27:23;3.97;;;1.40;;
47764;SDS011;33529;49.242;8.670;2023-05-07T03:29:51;2.85;;;1.60;;
47764;SDS011;33529;49.242;8.670;2023-05-07T03:32:19;2.08;;;1.20;;
47764;SDS011;33529;49.242;8.670;2023-05-07T03:34:46;2.88;;;1.50;;
47764;SDS011;33529;49.242;8.670;2023-05-07T03:37:13;3.03;;;1.70;;
47764;SDS011;33529;49.242;8.670;2023-05-07T03:39:41;3.13;;;1.50;;
47764;SDS011;33529;49.242;8.670;2023-05-07T03:42:09;2.35;;;1.40;;
47764;SDS011;33529;49.242;8.670;2023-05-07T03:44:36;2.90;;;1.63;;
47764;SDS011;33529;49.242;8.670;2023-05-07T03:47:03;2.40;;;1.50;;
47764;SDS011;33529;49.242;8.670;2023-05-07T03:49:31;3.28;;;1.58;;
47764;SDS011;33529;49.242;8.670;2023-05-07T03:51:58;2.70;;;1.50;;
47764;SDS011;33529;49.242;8.670;2023-05-07T03:54:25;3.38;;;1.65;;
47764;SDS011;33529;49.242;8.670;2023-05-07T03:56:52;2.95;;;1.33;;
47764;SDS011;33529;49.242;8.670;2023-05-07T03:59:20;1.90;;;1.20;;
47764;SDS011;33529;49.242;8.670;2023-05-07T04:01:48;2.40;;;1.63;;
47764;SDS011;33529;49.242;8.670;2023-05-07T04:04:17;2.58;;;1.50;;
47764;SDS011;33529;49.242;8.670;2023-05-07T04:06:44;2.92;;;1.33;;
47764;SDS011;33529;49.242;8.670;2023-05-07T04:09:12;2.47;;;1.52;;
47764;SDS011;33529;49.242;8.670;2023-05-07T04:11:39;2.72;;;1.42;;
47764;SDS011;33529;49.242;8.670;2023-05-07T04:14:10;3.08;;;1.70;;
47764;SDS011;33529;49.242;8.670;2023-05-07T04:16:37;2.97;;;1.52;;
47764;SDS011;33529;49.242;8.670;2023-05-07T04:19:06;2.95;;;1.58;;
47764;SDS011;33529;49.242;8.670;2023-05-07T04:21:34;2.15;;;1.10;;
47764;SDS011;33529;49.242;8.670;2023-05-07T04:24:02;2.22;;;1.40;;
47764;SDS011;33529;49.242;8.670;2023-05-07T04:26:30;2.67;;;1.50;;
47764;SDS011;33529;49.242;8.670;2023-05-07T04:28:57;2.60;;;1.70;;
47764;SDS011;33529;49.242;8.670;2023-05-07T04:31:30;2.72;;;1.48;;
47764;SDS011;33529;49.242;8.670;2023-05-07T04:33:58;3.22;;;2.08;;
47764;SDS011;33529;49.242;8.670;2023-05-07T04:36:25;3.20;;;1.83;;
47764;SDS011;33529;49.242;8.670;2023-05-07T04:38:58;3.63;;;1.55;;
47764;SDS011;33529;49.242;8.670;2023-05-07T04:41:26;2.63;;;1.60;;
47764;SDS011;33529;49.242;8.670;2023-05-07T04:43:53;2.85;;;1.52;;
47764;SDS011;33529;49.242;8.670;2023-05-07T04:46:22;3.25;;;1.60;;
47764;SDS011;33529;49.242;8.670;2023-05-07T04:48:51;2.63;;;1.42;;
47764;SDS011;33529;49.242;8.670;2023-05-07T04:51:18;3.80;;;1.70;;
47764;SDS011;33529;49.242;8.670;2023-05-07T04:53:44;3.75;;;2.13;;
47764;SDS011;33529;49.242;8.670;2023-05-07T04:56:11;2.75;;;1.73;;
47764;SDS011;33529;49.242;8.670;2023-05-07T04:58:41;2.95;;;1.60;;
47764;SDS011;33529;49.242;8.670;2023-05-07T05:01:09;2.17;;;1.33;;
47764;SDS011;33529;49.242;8.670;2023-05-07T05:03:36;2.75;;;1.50;;
47764;SDS011;33529;49.242;8.670;2023-05-07T05:06:04;4.65;;;1.92;;
47764;SDS011;33529;49.242;8.670;2023-05-07T05:08:33;2.40;;;1.42;;
47764;SDS011;33529;49.242;8.670;2023-05-07T05:11:02;2.53;;;1.77;;
47764;SDS011;33529;49.242;8.670;2023-05-07T05:13:33;2.63;;;1.42;;
47764;SDS011;33529;49.242;8.670;2023-05-07T05:16:05;3.40;;;1.85;;
47764;SDS011;33529;49.242;8.670;2023-05-07T05:18:32;3.45;;;2.03;;
47764;SDS011;33529;49.242;8.670;2023-05-07T05:20:59;3.42;;;1.75;;
47764;SDS011;33529;49.242;8.670;2023-05-07T05:23:27;3.10;;;1.80;;
47764;SDS011;33529;49.242;8.670;2023-05-07T05:25:57;1.95;;;1.48;;
47764;SDS011;33529;49.242;8.670;2023-05-07T05:28:27;2.38;;;1.42;;
47764;SDS011;33529;49.242;8.670;2023-05-07T05:30:55;2.72;;;1.50;;
47764;SDS011;33529;49.242;8.670;2023-05-07T05:33:23;2.53;;;1.50;;
47764;SDS011;33529;49.242;8.670;2023-05-07T05:35:50;1.98;;;1.40;;
47764;SDS011;33529;49.242;8.670;2023-05-07T05:38:17;3.72;;;1.75;;
47764;SDS011;33529;49.242;8.670;2023-05-07T05:40:44;3.63;;;2.15;;
47764;SDS011;33529;49.242;8.670;2023-05-07T05:43:11;2.35;;;1.40;;
47764;SDS011;33529;49.242;8.670;2023-05-07T05:45:38;2.70;;;1.50;;
47764;SDS011;33529;49.242;8.670;2023-05-07T05:48:05;2.65;;;1.58;;
47764;SDS011;33529;49.242;8.670;2023-05-07T05:50:32;3.05;;;1.77;;
47764;SDS011;33529;49.242;8.670;2023-05-07T05:52:59;2.75;;;1.67;;
47764;SDS011;33529;49.242;8.670;2023-05-07T05:55:27;2.70;;;1.70;;
47764;SDS011;33529;49.242;8.670;2023-05-07T05:57:54;2.45;;;1.40;;
47764;SDS011;33529;49.242;8.670;2023-05-07T06:00:21;3.60;;;1.88;;
47764;SDS011;33529;49.242;8.670;2023-05-07T06:02:57;2.22;;;1.40;;
47764;SDS011;33529;49.242;8.670;2023-05-07T06:05:24;2.72;;;1.33;;
47764;SDS011;33529;49.242;8.670;2023-05-07T06:07:54;2.83;;;1.45;;
47764;SDS011;33529;49.242;8.670;2023-05-07T06:10:21;3.05;;;1.35;;
47764;SDS011;33529;49.242;8.670;2023-05-07T06:12:47;3.88;;;1.38;;
47764;SDS011;33529;49.242;8.670;2023-05-07T06:15:15;2.67;;;1.42;;
47764;SDS011;33529;49.242;8.670;2023-05-07T06:17:43;2.40;;;1.55;;
47764;SDS011;33529;49.242;8.670;2023-05-07T06:20:10;2.70;;;1.83;;
47764;SDS011;33529;49.242;8.670;2023-05-07T06:22:39;2.80;;;1.67;;
47764;SDS011;33529;49.242;8.670;2023-05-07T06:25:07;2.90;;;1.77;;
47764;SDS011;33529;49.242;8.670;2023-05-07T06:27:35;2.65;;;1.70;;
47764;SDS011;33529;49.242;8.670;2023-05-07T06:30:02;2.28;;;1.30;;
47764;SDS011;33529;49.242;8.670;2023-05-07T06:32:29;2.65;;;1.65;;
47764;SDS011;33529;49.242;8.670;2023-05-07T06:34:59;2.85;;;1.65;;
47764;SDS011;33529;49.242;8.670;2023-05-07T06:37:26;2.63;;;1.70;;
47764;SDS011;33529;49.242;8.670;2023-05-07T06:39:57;3.63;;;1.83;;
47764;SDS011;33529;49.242;8.670;2023-05-07T06:42:27;2.08;;;1.30;;
47764;SDS011;33529;49.242;8.670;2023-05-07T06:45:00;2.45;;;1.58;;
47764;SDS011;33529;49.242;8.670;2023-05-07T06:47:30;3.40;;;1.92;;
47764;SDS011;33529;49.242;8.670;2023-05-07T06:49:56;3.47;;;1.73;;
47764;SDS011;33529;49.242;8.670;2023-05-07T06:52:27;3.28;;;1.63;;
47764;SDS011;33529;49.242;8.670;2023-05-07T06:54:54;3.03;;;1.48;;
47764;SDS011;33529;49.242;8.670;2023-05-07T06:57:24;2.75;;;1.88;;
47764;SDS011;33529;49.242;8.670;2023-05-07T06:59:53;2.80;;;1.75;;
47764;SDS011;33529;49.242;8.670;2023-05-07T07:02:20;2.60;;;1.40;;
47764;SDS011;33529;49.242;8.670;2023-05-07T07:04:48;2.70;;;1.60;;
47764;SDS011;33529;49.242;8.670;2023-05-07T07:07:16;2.72;;;1.45;;
47764;SDS011;33529;49.242;8.670;2023-05-07T07:09:45;3.33;;;1.73;;
47764;SDS011;33529;49.242;8.670;2023-05-07T07:12:14;3.40;;;1.80;;
47764;SDS011;33529;49.242;8.670;2023-05-07T07:14:42;3.67;;;1.45;;
47764;SDS011;33529;49.242;8.670;2023-05-07T07:17:09;3.35;;;1.60;;
47764;SDS011;33529;49.242;8.670;2023-05-07T07:19:35;2.67;;;1.25;;
47764;SDS011;33529;49.242;8.670;2023-05-07T07:22:02;2.72;;;1.60;;
47764;SDS011;33529;49.242;8.670;2023-05-07T07:24:30;2.55;;;1.50;;
47764;SDS011;33529;49.242;8.670;2023-05-07T07:27:01;2.80;;;1.58;;
47764;SDS011;33529;49.242;8.670;2023-05-07T07:29:28;3.25;;;1.75;;
47764;SDS011;33529;49.242;8.670;2023-05-07T07:31:55;2.53;;;1.35;;
47764;SDS011;33529;49.242;8.670;2023-05-07T07:34:23;2.00;;;1.13;;
47764;SDS011;33529;49.242;8.670;2023-05-07T07:36:50;1.88;;;1.20;;
47764;SDS011;33529;49.242;8.670;2023-05-07T07:39:18;2.10;;;1.25;;
47764;SDS011;33529;49.242;8.670;2023-05-07T07:41:47;2.72;;;1.45;;
47764;SDS011;33529;49.242;8.670;2023-05-07T07:44:15;2.42;;;1.50;;
47764;SDS011;33529;49.242;8.670;2023-05-07T07:46:48;2.45;;;1.20;;
47764;SDS011;33529;49.242;8.670;2023-05-07T07:49:16;2.60;;;1.30;;
47764;SDS011;33529;49.242;8.670;2023-05-07T07:51:43;1.38;;;1.02;;
47764;SDS011;33529;49.242;8.670;2023-05-07T07:54:11;2.55;;;1.15;;
47764;SDS011;33529;49.242;8.670;2023-05-07T07:56:38;2.80;;;1.50;;
47764;SDS011;33529;49.242;8.670;2023-05-07T07:59:08;2.65;;;1.40;;
47764;SDS011;33529;49.242;8.670;2023-05-07T08:01:38;2.30;;;1.05;;
47764;SDS011;33529;49.242;8.670;2023-05-07T08:04:04;1.88;;;1.25;;
47764;SDS011;33529;49.242;8.670;2023-05-07T08:06:36;1.58;;;0.90;;
47764;SDS011;33529;49.242;8.670;2023-05-07T08:09:04;2.03;;;1.20;;
47764;SDS011;33529;49.242;8.670;2023-05-07T08:11:32;1.92;;;1.00;;
47764;SDS011;33529;49.242;8.670;2023-05-07T08:13:59;1.92;;;1.10;;
47764;SDS011;33529;49.242;8.670;2023-05-07T08:16:26;2.33;;;1.35;;
47764;SDS011;33529;49.242;8.670;2023-05-07T08:18:57;2.03;;;1.13;;
47764;SDS011;33529;49.242;8.670;2023-05-07T08:21:24;2.42;;;1.15;;
47764;SDS011;33529;49.242;8.670;2023-05-07T08:23:51;3.42;;;1.08;;
47764;SDS011;33529;49.242;8.670;2023-05-07T08:26:17;1.50;;;0.82;;
47764;SDS011;33529;49.242;8.670;2023-05-07T08:28:44;1.67;;;0.93;;
47764;SDS011;33529;49.242;8.670;2023-05-07T08:31:11;1.58;;;1.02;;
47764;SDS011;33529;49.242;8.670;2023-05-07T08:33:40;2.17;;;1.00;;
47764;SDS011;33529;49.242;8.670;2023-05-07T08:36:07;1.67;;;1.10;;
47764;SDS011;33529;49.242;8.670;2023-05-07T08:38:34;1.85;;;0.73;;
47764;SDS011;33529;49.242;8.670;2023-05-07T08:41:01;1.65;;;0.90;;
47764;SDS011;33529;49.242;8.670;2023-05-07T08:43:29;2.22;;;1.15;;
47764;SDS011;33529;49.242;8.670;2023-05-07T08:46:00;1.38;;;0.95;;
47764;SDS011;33529;49.242;8.670;2023-05-07T08:48:32;1.35;;;0.93;;
47764;SDS011;33529;49.242;8.670;2023-05-07T08:51:12;2.53;;;0.93;;
47764;SDS011;33529;49.242;8.670;2023-05-07T08:53:41;2.45;;;1.08;;
47764;SDS011;33529;49.242;8.670;2023-05-07T08:56:12;2.40;;;1.10;;
47764;SDS011;33529;49.242;8.670;2023-05-07T08:58:42;1.48;;;1.00;;
47764;SDS011;33529;49.242;8.670;2023-05-07T09:01:12;2.90;;;1.35;;
47764;SDS011;33529;49.242;8.670;2023-05-07T09:03:44;1.90;;;1.05;;
47764;SDS011;33529;49.242;8.670;2023-05-07T09:06:14;1.58;;;0.70;;
47764;SDS011;33529;49.242;8.670;2023-05-07T09:08:44;2.85;;;1.10;;
47764;SDS011;33529;49.242;8.670;2023-05-07T09:11:21;1.88;;;1.08;;
47764;SDS011;33529;49.242;8.670;2023-05-07T09:13:53;2.30;;;1.30;;
47764;SDS011;33529;49.242;8.670;2023-05-07T09:16:31;2.25;;;1.40;;
47764;SDS011;33529;49.242;8.670;2023-05-07T09:18:59;4.15;;;1.20;;
47764;SDS011;33529;49.242;8.670;2023-05-07T09:21:29;2.20;;;1.23;;
47764;SDS011;33529;49.242;8.670;2023-05-07T09:23:58;1.83;;;1.02;;
47764;SDS011;33529;49.242;8.670;2023-05-07T09:26:34;1.45;;;0.98;;
47764;SDS011;33529;49.242;8.670;2023-05-07T09:29:03;1.92;;;1.20;;
47764;SDS011;33529;49.242;8.670;2023-05-07T09:31:30;2.08;;;1.30;;
47764;SDS011;33529;49.242;8.670;2023-05-07T09:33:57;3.75;;;1.70;;
47764;SDS011;33529;49.242;8.670;2023-05-07T09:36:27;3.40;;;1.23;;
47764;SDS011;33529;49.242;8.670;2023-05-07T09:38:54;1.92;;;1.10;;
47764;SDS011;33529;49.242;8.670;2023-05-07T09:41:22;2.40;;;1.10;;
47764;SDS011;33529;49.242;8.670;2023-05-07T09:44:03;2.85;;;1.30;;
47764;SDS011;33529;49.242;8.670;2023-05-07T09:46:38;1.75;;;0.93;;
47764;SDS011;33529;49.242;8.670;2023-05-07T09:49:18;1.88;;;1.30;;
47764;SDS011;33529;49.242;8.670;2023-05-07T09:51:51;2.22;;;1.30;;
47764;SDS011;33529;49.242;8.670;2023-05-07T09:54:22;2.15;;;1.10;;
47764;SDS011;33529;49.242;8.670;2023-05-07T09:56:52;3.03;;;1.63;;
47764;SDS011;33529;49.242;8.670;2023-05-07T09:59:25;4.20;;;1.35;;
47764;SDS011;33529;49.242;8.670;2023-05-07T10:01:58;1.65;;;1.05;;
47764;SDS011;33529;49.242;8.670;2023-05-07T10:04:31;1.90;;;0.98;;
47764;SDS011;33529;49.242;8.670;2023-05-07T10:06:58;1.65;;;1.13;;
47764;SDS011;33529;49.242;8.670;2023-05-07T10:09:27;1.42;;;0.77;;
47764;SDS011;33529;49.242;8.670;2023-05-07T10:11:55;3.38;;;1.55;;
47764;SDS011;33529;49.242;8.670;2023-05-07T10:14:23;1.33;;;0.90;;
47764;SDS011;33529;49.242;8.670;2023-05-07T10:16:51;2.55;;;1.15;;
47764;SDS011;33529;49.242;8.670;2023-05-07T10:19:20;1.90;;;1.02;;
47764;SDS011;33529;49.242;8.670;2023-05-07T10:21:55;2.95;;;1.52;;
47764;SDS011;33529;49.242;8.670;2023-05-07T10:24:35;2.22;;;1.20;;
47764;SDS011;33529;49.242;8.670;2023-05-07T10:27:10;2.33;;;1.27;;
47764;SDS011;33529;49.242;8.670;2023-05-07T10:32:50;1.65;;;1.20;;
47764;SDS011;33529;49.242;8.670;2023-05-07T10:35:27;2.90;;;1.23;;
47764;SDS011;33529;49.242;8.670;2023-05-07T10:38:00;2.03;;;1.10;;
47764;SDS011;33529;49.242;8.670;2023-05-07T10:40:30;2.47;;;1.40;;
47764;SDS011;33529;49.242;8.670;2023-05-07T10:42:59;2.85;;;1.45;;
47764;SDS011;33529;49.242;8.670;2023-05-07T10:45:34;3.15;;;1.25;;
47764;SDS011;33529;49.242;8.670;2023-05-07T10:48:36;1.63;;;1.13;;
47764;SDS011;33529;49.242;8.670;2023-05-07T10:51:18;2.08;;;1.05;;
47764;SDS011;33529;49.242;8.670;2023-05-07T10:56:49;2.47;;;1.40;;
47764;SDS011;33529;49.242;8.670;2023-05-07T11:04:32;2.13;;;1.25;;
47764;SDS011;33529;49.242;8.670;2023-05-07T11:07:31;2.17;;;1.20;;
47764;SDS011;33529;49.242;8.670;2023-05-07T11:10:03;3.28;;;1.42;;
47764;SDS011;33529;49.242;8.670;2023-05-07T11:12:51;2.22;;;1.25;;
47764;SDS011;33529;49.242;8.670;2023-05-07T11:15:33;3.97;;;1.20;;
47764;SDS011;33529;49.242;8.670;2023-05-07T11:18:15;2.17;;;1.10;;
47764;SDS011;33529;49.242;8.670;2023-05-07T11:20:51;3.00;;;1.60;;
47764;SDS011;33529;49.242;8.670;2023-05-07T11:26:22;2.38;;;1.40;;
47764;SDS011;33529;49.242;8.670;2023-05-07T11:28:50;2.63;;;1.02;;
47764;SDS011;33529;49.242;8.670;2023-05-07T11:31:22;2.65;;;1.23;;
47764;SDS011;33529;49.242;8.670;2023-05-07T11:33:53;1.77;;;1.08;;
47764;SDS011;33529;49.242;8.670;2023-05-07T11:36:22;1.65;;;0.95;;
47764;SDS011;33529;49.242;8.670;2023-05-07T11:38:52;1.83;;;0.95;;
47764;SDS011;33529;49.242;8.670;2023-05-07T11:41:19;3.33;;;1.50;;
47764;SDS011;33529;49.242;8.670;2023-05-07T11:43:54;2.33;;;1.00;;
47764;SDS011;33529;49.242;8.670;2023-05-07T11:46:22;2.03;;;1.00;;
47764;SDS011;33529;49.242;8.670;2023-05-07T11:48:49;2.17;;;1.27;;
47764;SDS011;33529;49.242;8.670;2023-05-07T11:51:20;1.55;;;0.90;;
47764;SDS011;33529;49.242;8.670;2023-05-07T11:53:48;2.53;;;1.17;;
47764;SDS011;33529;49.242;8.670;2023-05-07T11:56:16;1.98;;;1.08;;
47764;SDS011;33529;49.242;8.670;2023-05-07T11:58:44;2.90;;;1.20;;
47764;SDS011;33529;49.242;8.670;2023-05-07T12:01:12;1.40;;;0.95;;
47764;SDS011;33529;49.242;8.670;2023-05-07T12:03:40;2.55;;;1.35;;
47764;SDS011;33529;49.242;8.670;2023-05-07T12:06:15;1.60;;;0.90;;
47764;SDS011;33529;49.242;8.670;2023-05-07T12:08:43;2.28;;;1.02;;
47764;SDS011;33529;49.242;8.670;2023-05-07T12:11:14;2.45;;;1.20;;
47764;SDS011;33529;49.242;8.670;2023-05-07T12:13:44;1.77;;;1.03;;
47764;SDS011;33529;49.242;8.670;2023-05-07T12:16:11;1.75;;;1.13;;
47764;SDS011;33529;49.242;8.670;2023-05-07T12:18:38;4.40;;;1.30;;
47764;SDS011;33529;49.242;8.670;2023-05-07T12:21:06;2.10;;;1.10;;
47764;SDS011;33529;49.242;8.670;2023-05-07T12:23:34;2.45;;;1.02;;
47764;SDS011;33529;49.242;8.670;2023-05-07T12:26:02;1.63;;;0.98;;
47764;SDS011;33529;49.242;8.670;2023-05-07T12:28:36;1.48;;;1.08;;
47764;SDS011;33529;49.242;8.670;2023-05-07T12:31:06;2.05;;;1.10;;
47764;SDS011;33529;49.242;8.670;2023-05-07T12:33:34;1.80;;;0.90;;
47764;SDS011;33529;49.242;8.670;2023-05-07T12:36:07;2.33;;;1.27;;
47764;SDS011;33529;49.242;8.670;2023-05-07T12:38:35;2.03;;;1.20;;
47764;SDS011;33529;49.242;8.670;2023-05-07T12:41:03;1.75;;;1.15;;
47764;SDS011;33529;49.242;8.670;2023-05-07T12:43:31;1.98;;;1.10;;
47764;SDS011;33529;49.242;8.670;2023-05-07T12:45:59;2.22;;;1.00;;
47764;SDS011;33529;49.242;8.670;2023-05-07T12:48:28;2.20;;;1.10;;
47764;SDS011;33529;49.242;8.670;2023-05-07T12:50:55;1.98;;;1.42;;
47764;SDS011;33529;49.242;8.670;2023-05-07T12:53:24;1.90;;;1.27;;
47764;SDS011;33529;49.242;8.670;2023-05-07T12:55:53;2.28;;;1.30;;
47764;SDS011;33529;49.242;8.670;2023-05-07T12:58:25;2.60;;;1.20;;
47764;SDS011;33529;49.242;8.670;2023-05-07T13:00:54;1.70;;;0.90;;
47764;SDS011;33529;49.242;8.670;2023-05-07T13:03:32;2.05;;;1.10;;
47764;SDS011;33529;49.242;8.670;2023-05-07T13:06:02;2.13;;;1.10;;
47764;SDS011;33529;49.242;8.670;2023-05-07T13:08:37;2.03;;;1.05;;
47764;SDS011;33529;49.242;8.670;2023-05-07T13:11:11;1.50;;;0.90;;
47764;SDS011;33529;49.242;8.670;2023-05-07T13:13:39;1.80;;;1.00;;
47764;SDS011;33529;49.242;8.670;2023-05-07T13:16:09;1.85;;;1.00;;
47764;SDS011;33529;49.242;8.670;2023-05-07T13:18:38;1.42;;;0.95;;
47764;SDS011;33529;49.242;8.670;2023-05-07T13:21:06;1.48;;;0.90;;
47764;SDS011;33529;49.242;8.670;2023-05-07T13:23:33;3.25;;;1.05;;
47764;SDS011;33529;49.242;8.670;2023-05-07T13:26:00;1.88;;;0.95;;
47764;SDS011;33529;49.242;8.670;2023-05-07T13:28:36;1.65;;;1.08;;
47764;SDS011;33529;49.242;8.670;2023-05-07T13:31:03;1.45;;;0.90;;
47764;SDS011;33529;49.242;8.670;2023-05-07T13:33:30;1.48;;;0.82;;
47764;SDS011;33529;49.242;8.670;2023-05-07T13:35:57;1.67;;;1.00;;
47764;SDS011;33529;49.242;8.670;2023-05-07T13:38:23;3.17;;;1.40;;
47764;SDS011;33529;49.242;8.670;2023-05-07T13:40:50;2.10;;;1.42;;
47764;SDS011;33529;49.242;8.670;2023-05-07T13:43:17;2.30;;;1.10;;
47764;SDS011;33529;49.242;8.670;2023-05-07T13:45:44;2.55;;;1.13;;
47764;SDS011;33529;49.242;8.670;2023-05-07T13:48:11;1.95;;;1.10;;
47764;SDS011;33529;49.242;8.670;2023-05-07T13:50:38;2.20;;;1.15;;
47764;SDS011;33529;49.242;8.670;2023-05-07T13:53:07;5.43;;;1.42;;
47764;SDS011;33529;49.242;8.670;2023-05-07T13:55:34;2.58;;;1.40;;
47764;SDS011;33529;49.242;8.670;2023-05-07T13:58:02;2.38;;;1.27;;
47764;SDS011;33529;49.242;8.670;2023-05-07T14:00:32;2.30;;;1.25;;
47764;SDS011;33529;49.242;8.670;2023-05-07T14:03:01;1.70;;;1.10;;
47764;SDS011;33529;49.242;8.670;2023-05-07T14:05:27;2.53;;;1.30;;
47764;SDS011;33529;49.242;8.670;2023-05-07T14:07:54;2.15;;;1.35;;
47764;SDS011;33529;49.242;8.670;2023-05-07T14:10:23;2.22;;;1.00;;
47764;SDS011;33529;49.242;8.670;2023-05-07T14:12:51;1.38;;;0.80;;
47764;SDS011;33529;49.242;8.670;2023-05-07T14:15:18;4.03;;;1.27;;
47764;SDS011;33529;49.242;8.670;2023-05-07T14:17:45;3.60;;;1.20;;
47764;SDS011;33529;49.242;8.670;2023-05-07T14:20:13;2.45;;;1.05;;
47764;SDS011;33529;49.242;8.670;2023-05-07T14:22:40;3.03;;;0.90;;
47764;SDS011;33529;49.242;8.670;2023-05-07T14:25:07;3.28;;;1.08;;
47764;SDS011;33529;49.242;8.670;2023-05-07T14:27:35;2.88;;;1.00;;
47764;SDS011;33529;49.242;8.670;2023-05-07T14:30:03;2.97;;;1.02;;
47764;SDS011;33529;49.242;8.670;2023-05-07T14:32:30;1.63;;;0.93;;
47764;SDS011;33529;49.242;8.670;2023-05-07T14:34:58;1.10;;;0.73;;
47764;SDS011;33529;49.242;8.670;2023-05-07T14:37:24;3.80;;;0.90;;
47764;SDS011;33529;49.242;8.670;2023-05-07T14:39:51;2.15;;;0.70;;
47764;SDS011;33529;49.242;8.670;2023-05-07T14:42:18;0.95;;;0.60;;
47764;SDS011;33529;49.242;8.670;2023-05-07T14:44:46;1.92;;;0.70;;
47764;SDS011;33529;49.242;8.670;2023-05-07T14:47:14;0.98;;;0.65;;
47764;SDS011;33529;49.242;8.670;2023-05-07T14:49:45;1.42;;;1.10;;
47764;SDS011;33529;49.242;8.670;2023-05-07T14:52:12;2.17;;;0.82;;
47764;SDS011;33529;49.242;8.670;2023-05-07T14:54:39;2.67;;;1.00;;
47764;SDS011;33529;49.242;8.670;2023-05-07T14:57:06;2.30;;;0.70;;
47764;SDS011;33529;49.242;8.670;2023-05-07T14:59:34;2.22;;;1.10;;
47764;SDS011;33529;49.242;8.670;2023-05-07T15:02:01;1.67;;;0.93;;
47764;SDS011;33529;49.242;8.670;2023-05-07T15:04:32;2.85;;;0.90;;
47764;SDS011;33529;49.242;8.670;2023-05-07T15:07:01;1.67;;;0.80;;
47764;SDS011;33529;49.242;8.670;2023-05-07T15:09:28;1.60;;;0.60;;
47764;SDS011;33529;49.242;8.670;2023-05-07T15:11:55;1.85;;;0.73;;
47764;SDS011;33529;49.242;8.670;2023-05-07T15:14:22;1.77;;;0.95;;
47764;SDS011;33529;49.242;8.670;2023-05-07T15:16:51;1.17;;;0.80;;
47764;SDS011;33529;49.242;8.670;2023-05-07T15:19:18;1.63;;;0.70;;